Time;durP1;ratioP1;P1;durP2;ratioP2;P2;SDS_P1;SDS_P2;PMS_P1;PMS_P2;Temp;Humidity;BMP_temperature;BMP_pressure;BME280_temperature;BME280_humidity;BME280_pressure;Samples;Min_cycle;Max_cycle;Signal;HPM_P1;HPM_P2
2023/12/16 00:01:37;;;;;;;13.00;10.90;;;6.10;99.90;;;;;;5055143;28;20542;-64
2023/12/16 00:04:03;;;;;;;11.47;10.30;;;6.10;99.90;;;;;;5055311;28;20170;-64
2023/12/16 00:06:28;;;;;;;12.87;10.93;;;6.10;99.90;;;;;;5054991;28;20173;-64
2023/12/16 00:08:54;;;;;;;11.40;9.47;;;6.10;99.90;;;;;;5055128;28;20170;-65
2023/12/16 00:11:19;;;;;;;12.27;9.87;;;6.10;99.90;;;;;;5055583;28;20354;-64
2023/12/16 00:13:45;;;;;;;14.27;11.00;;;6.10;99.90;;;;;;5054881;28;20643;-64
2023/12/16 00:16:10;;;;;;;10.97;9.77;;;6.10;99.90;;;;;;5055103;28;20235;-64
2023/12/16 00:18:37;;;;;;;11.80;9.80;;;6.20;99.90;;;;;;5054886;28;20166;-64
2023/12/16 00:21:03;;;;;;;12.33;10.37;;;6.20;99.90;;;;;;5054732;28;20197;-64
2023/12/16 00:23:28;;;;;;;12.73;11.30;;;6.20;99.90;;;;;;5054882;28;20428;-64
2023/12/16 00:25:54;;;;;;;12.40;10.13;;;6.20;99.90;;;;;;5054519;28;20643;-64
2023/12/16 00:28:19;;;;;;;11.53;10.37;;;6.20;99.90;;;;;;5054689;28;20170;-64
2023/12/16 00:30:45;;;;;;;10.73;9.63;;;6.10;99.90;;;;;;5054682;28;20220;-64
2023/12/16 00:33:11;;;;;;;12.80;10.90;;;6.10;99.90;;;;;;5054495;28;20189;-64
2023/12/16 00:35:36;;;;;;;13.20;10.67;;;6.10;99.90;;;;;;5053514;28;20172;-64
2023/12/16 00:38:02;;;;;;;12.67;11.37;;;6.10;99.90;;;;;;5054561;28;20412;-64
2023/12/16 00:40:27;;;;;;;11.67;10.57;;;6.20;99.90;;;;;;5036574;28;20212;-64
2023/12/16 00:42:53;;;;;;;12.77;11.27;;;6.10;99.90;;;;;;5054515;28;20252;-64
2023/12/16 00:45:18;;;;;;;12.40;10.43;;;6.00;99.90;;;;;;5054381;28;20261;-64
2023/12/16 00:47:44;;;;;;;12.73;11.40;;;6.00;99.90;;;;;;5054113;28;20594;-64
2023/12/16 00:50:09;;;;;;;12.27;10.37;;;6.00;99.90;;;;;;5054367;28;20197;-64
2023/12/16 00:52:35;;;;;;;12.30;11.10;;;6.00;99.90;;;;;;5054299;28;20177;-64
2023/12/16 00:55:01;;;;;;;12.83;10.83;;;6.00;99.90;;;;;;5054256;28;20554;-64
2023/12/16 00:57:26;;;;;;;15.67;13.70;;;6.10;99.90;;;;;;5053965;28;20169;-64
2023/12/16 00:59:51;;;;;;;13.60;10.40;;;6.20;99.90;;;;;;5053967;28;20235;-64
2023/12/16 01:02:17;;;;;;;13.23;11.83;;;6.20;99.90;;;;;;5054134;28;20162;-64
2023/12/16 01:04:43;;;;;;;12.40;10.40;;;6.20;99.90;;;;;;5054180;28;20172;-64
2023/12/16 01:07:09;;;;;;;11.47;10.20;;;6.20;99.90;;;;;;5053804;28;20166;-64
2023/12/16 01:09:34;;;;;;;10.27;9.17;;;6.20;99.90;;;;;;5053944;28;20162;-64
2023/12/16 01:12:00;;;;;;;12.87;10.53;;;6.20;99.90;;;;;;5053949;28;20874;-64
2023/12/16 01:14:26;;;;;;;12.90;10.10;;;6.20;99.90;;;;;;5054013;28;20170;-64
2023/12/16 01:16:51;;;;;;;13.40;10.43;;;6.30;99.90;;;;;;5053687;28;20711;-64
2023/12/16 01:19:16;;;;;;;9.93;8.93;;;6.30;99.90;;;;;;5053833;28;20658;-64
2023/12/16 01:21:42;;;;;;;10.67;9.20;;;6.40;99.90;;;;;;5053665;28;20209;-65
2023/12/16 01:24:08;;;;;;;10.90;9.37;;;6.30;99.90;;;;;;5053531;28;20178;-64
2023/12/16 01:26:34;;;;;;;12.37;10.70;;;6.30;99.90;;;;;;5053658;28;20913;-64
2023/12/16 01:29:00;;;;;;;10.60;9.50;;;6.30;99.90;;;;;;5053688;28;20474;-64
2023/12/16 01:31:26;;;;;;;11.63;10.40;;;6.20;99.90;;;;;;5053496;28;20189;-64
2023/12/16 01:33:51;;;;;;;10.47;8.90;;;6.20;99.90;;;;;;5053659;28;20469;-64
2023/12/16 01:36:19;;;;;;;12.10;9.97;;;6.20;99.90;;;;;;5053277;28;20654;-64
2023/12/16 01:38:44;;;;;;;12.03;9.30;;;6.20;99.90;;;;;;5053473;28;20754;-64
2023/12/16 01:41:10;;;;;;;11.37;10.23;;;6.30;99.90;;;;;;5053312;28;20463;-64
2023/12/16 01:43:35;;;;;;;10.47;9.40;;;6.30;99.90;;;;;;5053331;28;20182;-64
2023/12/16 01:46:05;;;;;;;9.10;8.20;;;6.30;99.90;;;;;;5052791;28;20698;-65
2023/12/16 01:48:32;;;;;;;11.47;9.70;;;6.20;99.90;;;;;;5052986;28;20175;-64
2023/12/16 01:50:59;;;;;;;10.20;8.90;;;6.20;99.90;;;;;;5052994;28;20432;-64
2023/12/16 01:53:26;;;;;;;8.27;7.47;;;6.30;99.90;;;;;;5053355;28;20532;-64
2023/12/16 01:55:53;;;;;;;9.57;8.60;;;6.30;99.90;;;;;;5053098;28;20450;-64
2023/12/16 01:58:19;;;;;;;9.27;7.83;;;6.40;99.90;;;;;;5052774;28;20467;-64
2023/12/16 02:00:46;;;;;;;10.50;9.50;;;6.40;99.90;;;;;;5052824;28;20541;-64
2023/12/16 02:03:14;;;;;;;10.60;8.30;;;6.40;99.90;;;;;;5052921;28;20555;-64
2023/12/16 02:05:41;;;;;;;10.03;9.13;;;6.40;99.90;;;;;;5052800;28;20427;-64
2023/12/16 02:08:06;;;;;;;11.30;9.27;;;6.50;99.90;;;;;;5052701;28;20416;-64
2023/12/16 02:10:32;;;;;;;9.50;8.50;;;6.40;99.90;;;;;;5052714;28;20458;-64
2023/12/16 02:13:02;;;;;;;11.73;9.60;;;6.40;99.90;;;;;;5052873;28;20170;-64
2023/12/16 02:15:27;;;;;;;9.57;8.67;;;6.40;99.90;;;;;;5052795;28;20548;-64
2023/12/16 02:17:53;;;;;;;12.53;8.90;;;6.50;99.90;;;;;;5052445;28;20412;-64
2023/12/16 02:20:19;;;;;;;9.17;8.20;;;6.50;99.90;;;;;;5052501;28;20216;-64
2023/12/16 02:22:46;;;;;;;11.73;10.63;;;6.50;99.90;;;;;;5052528;28;20165;-65
2023/12/16 02:25:13;;;;;;;10.27;9.20;;;6.40;99.90;;;;;;5052072;28;20161;-65
2023/12/16 02:27:41;;;;;;;9.93;9.03;;;6.40;99.90;;;;;;5052291;28;20416;-64
2023/12/16 02:30:10;;;;;;;9.37;8.47;;;6.40;99.90;;;;;;5052266;28;20440;-64
2023/12/16 02:32:35;;;;;;;9.10;8.20;;;6.40;99.90;;;;;;5052389;28;20423;-64
2023/12/16 02:35:01;;;;;;;14.23;9.90;;;6.40;99.90;;;;;;5052311;28;20971;-65
2023/12/16 02:37:26;;;;;;;10.33;8.87;;;6.30;99.90;;;;;;5052085;28;20174;-64
2023/12/16 02:39:52;;;;;;;11.83;10.00;;;6.40;99.90;;;;;;5052172;28;20174;-65
2023/12/16 02:42:17;;;;;;;11.20;10.00;;;6.40;99.90;;;;;;5052329;28;20170;-64
2023/12/16 02:44:43;;;;;;;10.70;9.47;;;6.40;99.90;;;;;;5052183;28;20181;-64
2023/12/16 02:47:08;;;;;;;15.03;11.20;;;6.50;99.90;;;;;;5052049;28;20178;-64
2023/12/16 02:49:34;;;;;;;11.77;9.67;;;6.40;99.90;;;;;;5052199;28;20702;-66
2023/12/16 02:52:00;;;;;;;10.23;9.20;;;6.30;99.90;;;;;;5052047;28;20281;-64
2023/12/16 02:54:27;;;;;;;9.77;8.87;;;6.30;99.90;;;;;;5052116;28;20180;-64
2023/12/16 02:56:52;;;;;;;11.53;9.60;;;6.20;99.90;;;;;;5051288;28;20177;-64
2023/12/16 02:59:17;;;;;;;10.57;9.50;;;6.10;99.90;;;;;;5051846;28;20428;-64
2023/12/16 03:01:43;;;;;;;13.07;8.70;;;6.10;99.90;;;;;;5052075;28;20208;-64
2023/12/16 03:04:08;;;;;;;9.43;8.60;;;6.20;99.90;;;;;;5051913;28;20251;-65
2023/12/16 03:06:35;;;;;;;10.17;9.13;;;6.20;99.90;;;;;;5051850;28;20574;-65
2023/12/16 03:09:01;;;;;;;9.53;8.50;;;6.20;99.90;;;;;;5051968;28;20237;-65
2023/12/16 03:11:27;;;;;;;9.00;8.10;;;6.20;99.90;;;;;;5051940;28;20491;-65
2023/12/16 03:13:52;;;;;;;9.07;8.17;;;6.20;99.90;;;;;;5051898;28;20419;-65
2023/12/16 03:16:18;;;;;;;8.80;7.87;;;6.20;99.90;;;;;;5051747;28;20185;-66
2023/12/16 03:18:43;;;;;;;11.87;8.53;;;6.20;99.90;;;;;;5051794;28;20514;-66
2023/12/16 03:21:09;;;;;;;9.33;7.93;;;6.30;99.90;;;;;;5051716;28;20201;-65
2023/12/16 03:23:35;;;;;;;9.17;8.37;;;6.30;99.90;;;;;;5051825;28;20534;-65
2023/12/16 03:26:01;;;;;;;11.23;7.40;;;6.30;99.90;;;;;;5051200;28;20174;-65
2023/12/16 03:28:26;;;;;;;7.07;6.47;;;6.40;99.90;;;;;;5051553;28;20412;-65
2023/12/16 03:30:52;;;;;;;10.57;8.50;;;6.30;99.90;;;;;;5051790;28;20197;-65
2023/12/16 03:33:17;;;;;;;8.93;7.80;;;6.20;99.90;;;;;;5051726;28;20197;-65
2023/12/16 03:35:43;;;;;;;11.80;7.70;;;6.20;99.90;;;;;;5051686;28;20177;-65
2023/12/16 03:38:08;;;;;;;11.13;10.00;;;6.10;99.90;;;;;;5051400;28;20280;-65
2023/12/16 03:40:34;;;;;;;10.37;9.13;;;6.10;99.90;;;;;;5051494;28;20193;-65
2023/12/16 03:42:59;;;;;;;11.70;8.13;;;6.10;99.90;;;;;;5051775;28;20189;-66
2023/12/16 03:45:25;;;;;;;9.87;7.60;;;6.30;99.90;;;;;;5051591;28;20192;-65
2023/12/16 03:47:50;;;;;;;8.00;7.17;;;6.30;99.90;;;;;;5051294;28;20200;-65
2023/12/16 03:50:16;;;;;;;8.07;7.33;;;6.30;99.90;;;;;;5051544;28;20292;-65
2023/12/16 03:52:41;;;;;;;9.07;6.73;;;6.40;99.90;;;;;;5051539;28;20634;-65
2023/12/16 03:55:07;;;;;;;9.67;8.10;;;6.40;99.90;;;;;;5051453;28;20174;-65
2023/12/16 03:57:33;;;;;;;8.70;7.17;;;6.40;99.90;;;;;;5051234;28;20181;-65
2023/12/16 03:59:59;;;;;;;10.37;7.73;;;6.30;99.90;;;;;;5051355;28;20194;-65
2023/12/16 04:02:25;;;;;;;9.70;8.40;;;6.30;99.90;;;;;;5051535;28;20778;-65
2023/12/16 04:04:50;;;;;;;7.93;7.10;;;6.20;99.90;;;;;;5051523;28;20260;-65
2023/12/16 04:07:16;;;;;;;8.00;7.27;;;6.20;99.90;;;;;;5051094;28;20170;-65
2023/12/16 04:09:42;;;;;;;7.30;6.70;;;6.20;99.90;;;;;;5053894;28;20174;-65
2023/12/16 04:12:07;;;;;;;7.90;7.20;;;6.20;99.90;;;;;;5055085;28;20447;-65
2023/12/16 04:14:39;;;;;;;10.67;7.93;;;6.30;99.90;;;;;;5055086;28;20161;-65
2023/12/16 04:17:05;;;;;;;7.97;7.17;;;6.20;99.90;;;;;;5054683;28;20169;-65
2023/12/16 04:19:31;;;;;;;7.57;6.77;;;6.30;99.90;;;;;;5037132;28;20416;-65
2023/12/16 04:21:57;;;;;;;8.87;7.10;;;6.30;99.90;;;;;;5054698;28;20486;-65
2023/12/16 04:24:22;;;;;;;8.73;7.90;;;6.30;99.90;;;;;;5054274;28;20173;-65
2023/12/16 04:26:48;;;;;;;8.17;7.13;;;6.40;99.90;;;;;;5054696;28;20589;-65
2023/12/16 04:29:14;;;;;;;9.47;8.50;;;6.40;99.90;;;;;;5054737;28;20227;-65
2023/12/16 04:31:40;;;;;;;9.33;7.60;;;6.30;99.90;;;;;;5054703;28;20194;-65
2023/12/16 04:34:05;;;;;;;8.57;7.67;;;6.30;99.90;;;;;;5054661;28;20177;-65
2023/12/16 04:36:31;;;;;;;7.33;6.63;;;6.40;99.90;;;;;;5054353;28;20424;-65
2023/12/16 04:38:56;;;;;;;9.57;8.63;;;6.30;99.90;;;;;;5054622;28;20172;-65
2023/12/16 04:41:22;;;;;;;8.33;7.50;;;6.30;99.90;;;;;;5054449;28;20226;-65
2023/12/16 04:43:47;;;;;;;7.80;7.00;;;6.20;99.90;;;;;;5054636;28;20203;-65
2023/12/16 04:46:17;;;;;;;10.57;8.60;;;6.20;99.90;;;;;;5054518;28;20174;-66
2023/12/16 04:48:43;;;;;;;9.57;7.13;;;6.20;99.90;;;;;;5054126;28;20260;-65
2023/12/16 04:51:08;;;;;;;7.47;6.63;;;6.20;99.90;;;;;;5054226;28;20523;-66
2023/12/16 04:53:34;;;;;;;6.70;6.10;;;6.30;99.90;;;;;;5054374;28;20223;-65
2023/12/16 04:56:00;;;;;;;7.23;6.50;;;6.30;99.90;;;;;;5054402;28;20230;-65
2023/12/16 04:58:26;;;;;;;6.90;6.20;;;6.30;99.90;;;;;;5054013;28;20630;-65
2023/12/16 05:00:51;;;;;;;7.77;6.97;;;6.40;99.90;;;;;;5054148;28;20201;-65
2023/12/16 05:03:17;;;;;;;6.80;6.17;;;6.40;99.90;;;;;;5054098;28;20857;-65
2023/12/16 05:05:42;;;;;;;7.73;7.03;;;6.40;99.90;;;;;;5054287;28;20627;-65
2023/12/16 05:08:09;;;;;;;8.37;6.00;;;6.30;99.90;;;;;;5053919;28;20552;-65
2023/12/16 05:10:34;;;;;;;6.57;5.97;;;6.30;99.90;;;;;;5053929;28;20255;-65
2023/12/16 05:13:00;;;;;;;6.80;6.10;;;6.30;99.90;;;;;;5054001;28;20420;-65
2023/12/16 05:15:25;;;;;;;8.17;6.07;;;6.30;99.90;;;;;;5053903;28;20256;-65
2023/12/16 05:17:51;;;;;;;6.43;5.43;;;6.30;99.90;;;;;;5053513;28;20248;-65
2023/12/16 05:20:16;;;;;;;9.40;8.00;;;6.30;99.90;;;;;;5053081;28;20570;-65
2023/12/16 05:22:42;;;;;;;8.20;6.50;;;6.30;99.90;;;;;;5053970;28;20651;-65
2023/12/16 05:25:08;;;;;;;7.20;6.30;;;6.30;99.90;;;;;;5053308;28;20534;-65
2023/12/16 05:27:34;;;;;;;8.37;7.57;;;6.30;99.90;;;;;;5053411;28;20173;-66
2023/12/16 05:30:01;;;;;;;8.53;6.83;;;6.20;99.90;;;;;;5053491;28;20432;-65
2023/12/16 05:32:27;;;;;;;6.13;5.63;;;6.20;99.90;;;;;;5053572;28;20245;-65
2023/12/16 05:34:53;;;;;;;7.50;6.40;;;6.10;99.90;;;;;;5053569;28;20938;-65
2023/12/16 05:37:19;;;;;;;8.63;6.13;;;6.10;99.90;;;;;;5053331;28;20408;-66
2023/12/16 05:39:45;;;;;;;8.73;6.70;;;6.10;99.90;;;;;;5053453;28;20495;-65
2023/12/16 05:42:10;;;;;;;6.97;6.30;;;6.10;99.90;;;;;;5053410;28;20515;-65
2023/12/16 05:44:36;;;;;;;7.63;6.50;;;6.00;99.90;;;;;;5053403;28;20804;-65
2023/12/16 05:47:02;;;;;;;5.93;5.30;;;6.00;99.90;;;;;;5053043;28;20666;-65
2023/12/16 05:49:27;;;;;;;10.00;8.27;;;6.00;99.90;;;;;;5053338;28;20209;-65
2023/12/16 05:51:54;;;;;;;7.80;6.57;;;6.00;99.90;;;;;;5053175;28;20185;-65
2023/12/16 05:54:19;;;;;;;6.70;5.57;;;6.00;99.90;;;;;;5053260;28;20177;-65
2023/12/16 05:56:45;;;;;;;9.30;6.47;;;6.00;99.90;;;;;;5052842;28;20438;-66
2023/12/16 05:59:10;;;;;;;7.50;6.70;;;6.00;99.90;;;;;;5052998;28;20178;-65
2023/12/16 06:01:36;;;;;;;6.60;6.00;;;6.00;99.90;;;;;;5052867;28;20212;-65
2023/12/16 06:04:01;;;;;;;7.93;5.80;;;6.00;99.90;;;;;;5053009;28;20195;-65
2023/12/16 06:06:27;;;;;;;7.53;6.90;;;6.00;99.90;;;;;;5052606;28;20170;-65
2023/12/16 06:08:53;;;;;;;7.53;6.77;;;6.00;99.90;;;;;;5052931;28;20166;-65
2023/12/16 06:11:21;;;;;;;7.90;6.47;;;6.00;99.90;;;;;;5064227;22;20217;-67
2023/12/16 06:13:47;;;;;;;7.87;7.07;;;5.90;99.90;;;;;;5032846;28;20425;-66
2023/12/16 06:16:14;;;;;;;8.10;6.33;;;5.90;99.90;;;;;;5032696;28;20421;-66
2023/12/16 06:18:40;;;;;;;7.53;6.63;;;5.90;99.90;;;;;;5032698;28;20417;-67
2023/12/16 06:21:06;;;;;;;6.60;6.00;;;5.90;99.90;;;;;;5032764;28;20480;-67
2023/12/16 06:23:31;;;;;;;7.73;6.97;;;6.00;99.90;;;;;;5032730;28;20185;-67
2023/12/16 06:25:57;;;;;;;8.53;6.97;;;5.90;99.90;;;;;;5032231;28;20219;-66
2023/12/16 06:28:22;;;;;;;8.10;7.17;;;5.90;99.90;;;;;;5032693;28;20166;-67
2023/12/16 06:30:48;;;;;;;7.17;6.27;;;5.90;99.90;;;;;;5032556;28;20201;-67
2023/12/16 06:33:13;;;;;;;6.93;6.20;;;5.80;99.90;;;;;;5032828;28;20661;-67
2023/12/16 06:35:39;;;;;;;7.37;6.57;;;5.80;99.90;;;;;;5033067;28;20170;-67
2023/12/16 06:38:04;;;;;;;9.60;7.20;;;5.80;99.90;;;;;;5032309;28;20216;-67
2023/12/16 06:40:33;;;;;;;7.03;6.00;;;5.80;99.90;;;;;;5032304;28;20901;-66
2023/12/16 06:42:58;;;;;;;7.73;7.03;;;5.80;99.90;;;;;;5032439;28;20228;-67
2023/12/16 06:45:24;;;;;;;7.00;6.30;;;5.80;99.90;;;;;;5032372;28;20421;-67
2023/12/16 06:47:49;;;;;;;7.73;6.93;;;5.80;99.90;;;;;;5032102;28;20257;-67
2023/12/16 06:50:15;;;;;;;7.67;6.27;;;5.80;99.90;;;;;;5032314;28;20593;-67
2023/12/16 06:52:40;;;;;;;8.40;6.37;;;5.70;99.90;;;;;;5032299;28;20224;-67
2023/12/16 06:55:06;;;;;;;8.53;7.17;;;5.80;99.90;;;;;;5032217;28;20171;-67
2023/12/16 06:57:32;;;;;;;8.07;6.77;;;5.70;99.90;;;;;;5031961;28;20257;-67
2023/12/16 06:59:58;;;;;;;6.53;5.93;;;5.70;99.90;;;;;;5032115;28;20452;-67
2023/12/16 07:02:24;;;;;;;9.27;6.80;;;5.70;99.90;;;;;;5032283;28;20201;-67
2023/12/16 07:04:50;;;;;;;8.00;6.63;;;5.70;99.90;;;;;;5032166;28;20686;-67
2023/12/16 07:07:15;;;;;;;12.90;8.60;;;5.70;99.90;;;;;;5031938;28;20420;-67
2023/12/16 07:09:41;;;;;;;8.87;7.60;;;5.70;99.90;;;;;;5031964;28;20178;-67
2023/12/16 07:12:06;;;;;;;8.13;7.33;;;5.70;99.90;;;;;;5032112;28;20682;-67
2023/12/16 07:14:33;;;;;;;8.27;6.97;;;5.70;99.90;;;;;;5032026;28;20202;-67
2023/12/16 07:16:59;;;;;;;7.40;6.70;;;5.80;99.90;;;;;;5031676;28;20163;-67
2023/12/16 07:19:27;;;;;;;7.70;6.67;;;5.80;99.90;;;;;;5031984;28;20416;-67
2023/12/16 07:21:53;;;;;;;8.07;6.67;;;5.80;99.90;;;;;;5031818;28;20472;-67
2023/12/16 07:24:18;;;;;;;7.30;6.60;;;5.80;99.90;;;;;;5031352;28;20412;-67
2023/12/16 07:26:44;;;;;;;8.03;7.17;;;5.80;99.90;;;;;;5031671;28;20178;-67
2023/12/16 07:29:09;;;;;;;7.50;5.73;;;5.80;99.90;;;;;;5031847;28;20193;-67
2023/12/16 07:31:35;;;;;;;9.03;7.27;;;5.80;99.90;;;;;;5031756;28;20194;-67
2023/12/16 07:34:00;;;;;;;7.50;6.80;;;5.80;99.90;;;;;;5031962;28;20232;-67
2023/12/16 07:36:25;;;;;;;6.17;5.60;;;5.80;99.90;;;;;;5031462;28;20249;-67
2023/12/16 07:38:51;;;;;;;6.63;5.93;;;5.70;99.90;;;;;;5032102;28;20229;-67
2023/12/16 07:41:16;;;;;;;8.83;7.27;;;5.80;99.90;;;;;;5031662;28;20206;-67
2023/12/16 07:43:42;;;;;;;8.20;6.60;;;5.80;99.90;;;;;;5032936;28;20201;-67
2023/12/16 07:46:08;;;;;;;8.43;7.47;;;5.80;99.90;;;;;;5035766;28;20171;-67
2023/12/16 07:48:33;;;;;;;8.60;7.23;;;5.90;99.90;;;;;;5035455;28;20698;-67
2023/12/16 07:50:59;;;;;;;7.87;7.17;;;5.80;99.90;;;;;;5035597;28;20213;-67
2023/12/16 07:53:24;;;;;;;7.97;6.30;;;5.80;99.90;;;;;;5035967;28;20178;-67
2023/12/16 07:55:50;;;;;;;7.23;6.53;;;5.90;99.90;;;;;;5035633;28;20591;-67
2023/12/16 07:58:15;;;;;;;8.90;7.17;;;5.90;99.90;;;;;;5035175;28;20174;-67
2023/12/16 08:00:42;;;;;;;8.20;7.40;;;5.90;99.90;;;;;;5035268;28;20211;-67
2023/12/16 08:03:07;;;;;;;6.63;6.00;;;5.90;99.90;;;;;;5035664;28;20182;-67
2023/12/16 08:05:33;;;;;;;8.07;7.20;;;5.90;99.90;;;;;;5035336;28;20436;-67
2023/12/16 08:07:59;;;;;;;9.87;7.07;;;5.90;99.90;;;;;;5035212;28;20251;-67
2023/12/16 08:10:24;;;;;;;7.90;7.10;;;6.00;99.90;;;;;;5035130;28;20205;-67
2023/12/16 08:12:53;;;;;;;7.83;7.13;;;6.00;99.90;;;;;;5033920;28;20197;-67
2023/12/16 08:15:19;;;;;;;7.47;6.33;;;6.00;99.90;;;;;;5035196;28;20174;-67
2023/12/16 08:17:44;;;;;;;8.93;6.83;;;6.10;99.90;;;;;;5034852;28;20486;-67
2023/12/16 08:20:10;;;;;;;7.00;6.30;;;6.10;99.90;;;;;;5034864;28;20237;-66
2023/12/16 08:22:36;;;;;;;8.53;6.30;;;6.10;99.90;;;;;;5035023;28;20581;-67
2023/12/16 08:25:01;;;;;;;8.13;7.33;;;6.10;99.90;;;;;;5034502;28;20177;-67
2023/12/16 08:27:27;;;;;;;7.70;6.90;;;6.10;99.90;;;;;;5034680;28;20678;-67
2023/12/16 08:29:53;;;;;;;7.20;6.50;;;6.20;99.90;;;;;;5034785;28;20197;-67
2023/12/16 08:32:18;;;;;;;10.90;9.13;;;6.20;99.90;;;;;;5035118;28;20448;-67
2023/12/16 08:34:44;;;;;;;7.43;6.53;;;6.30;99.90;;;;;;5034933;28;20246;-67
2023/12/16 08:37:10;;;;;;;7.80;7.10;;;6.30;99.90;;;;;;5033240;28;20178;-66
2023/12/16 08:39:36;;;;;;;17.40;7.60;;;6.30;99.90;;;;;;5034748;28;20178;-66
2023/12/16 08:42:01;;;;;;;7.23;5.90;;;6.30;99.90;;;;;;5034469;28;20840;-67
2023/12/16 08:44:27;;;;;;;7.03;6.00;;;6.30;99.90;;;;;;5034600;28;20241;-67
2023/12/16 08:46:52;;;;;;;8.47;6.07;;;6.40;99.90;;;;;;5034296;28;20249;-66
2023/12/16 08:49:17;;;;;;;7.17;5.50;;;6.50;99.90;;;;;;5034569;28;20170;-67
2023/12/16 08:51:43;;;;;;;7.50;6.70;;;6.60;99.90;;;;;;5034397;28;20217;-67
2023/12/16 08:54:09;;;;;;;7.90;7.10;;;6.60;99.90;;;;;;5034369;28;20167;-67
2023/12/16 08:56:35;;;;;;;11.00;6.17;;;6.70;99.90;;;;;;5033001;28;20674;-67
2023/12/16 08:59:00;;;;;;;6.43;5.73;;;6.80;99.90;;;;;;5034326;28;20182;-67
2023/12/16 09:01:26;;;;;;;9.50;5.63;;;6.80;99.90;;;;;;5034078;28;20699;-67
2023/12/16 09:03:52;;;;;;;7.37;6.67;;;6.80;99.90;;;;;;5034289;28;20171;-67
2023/12/16 09:06:17;;;;;;;7.20;6.47;;;6.80;99.90;;;;;;5034241;28;20472;-67
2023/12/16 09:08:43;;;;;;;10.20;8.53;;;6.90;99.90;;;;;;5034079;28;20166;-67
2023/12/16 09:11:09;;;;;;;9.57;7.50;;;6.90;99.90;;;;;;5034004;28;20214;-67
2023/12/16 09:13:35;;;;;;;9.23;6.90;;;6.80;99.90;;;;;;5034026;28;20175;-67
2023/12/16 09:16:00;;;;;;;9.83;6.27;;;6.80;99.90;;;;;;5033887;28;20551;-67
2023/12/16 09:18:26;;;;;;;10.10;6.23;;;7.00;99.90;;;;;;5033752;28;20934;-67
2023/12/16 09:20:51;;;;;;;7.40;6.07;;;7.10;99.90;;;;;;5033812;28;20782;-67
2023/12/16 09:23:17;;;;;;;6.70;5.90;;;7.20;99.90;;;;;;5033916;28;20174;-67
2023/12/16 09:25:43;;;;;;;7.57;6.80;;;7.30;99.90;;;;;;5033822;28;20201;-66
2023/12/16 09:28:09;;;;;;;8.10;5.87;;;7.30;99.90;;;;;;5033498;28;20177;-67
2023/12/16 09:30:34;;;;;;;6.73;6.07;;;7.40;99.90;;;;;;5033645;28;20444;-67
2023/12/16 09:33:00;;;;;;;6.67;5.53;;;7.40;99.90;;;;;;5033785;28;20178;-67
2023/12/16 09:35:25;;;;;;;6.93;6.33;;;7.50;99.90;;;;;;5033655;28;20254;-67
2023/12/16 09:37:51;;;;;;;6.87;6.07;;;7.60;99.90;;;;;;5033478;28;20175;-68
2023/12/16 09:40:16;;;;;;;6.93;6.30;;;7.70;99.90;;;;;;5033423;28;20194;-67
2023/12/16 09:42:46;;;;;;;6.97;6.27;;;7.70;99.90;;;;;;5033545;28;20170;-67
2023/12/16 09:45:15;;;;;;;11.23;7.70;;;7.80;99.90;;;;;;5033401;28;20170;-67
2023/12/16 09:47:42;;;;;;;7.53;6.83;;;7.70;99.90;;;;;;5033147;28;20420;-67
2023/12/16 09:50:10;;;;;;;7.63;6.83;;;7.80;99.90;;;;;;5033335;28;20423;-67
2023/12/16 09:52:35;;;;;;;6.57;6.03;;;7.80;99.90;;;;;;5033326;28;20793;-67
2023/12/16 09:55:01;;;;;;;8.17;6.97;;;7.80;99.90;;;;;;5033273;28;20417;-68
2023/12/16 09:57:27;;;;;;;8.73;7.83;;;7.80;99.90;;;;;;5032951;28;20181;-67
2023/12/16 09:59:54;;;;;;;8.23;7.43;;;7.90;99.90;;;;;;5033077;28;20174;-67
2023/12/16 10:02:27;;;;;;;8.80;7.63;;;7.90;99.90;;;;;;5033136;28;20405;-67
2023/12/16 10:04:58;;;;;;;9.50;8.50;;;7.80;99.90;;;;;;5033156;28;20417;-67
2023/12/16 10:07:24;;;;;;;10.23;7.57;;;7.90;99.90;;;;;;5032489;28;20417;-67
2023/12/16 10:09:49;;;;;;;9.30;7.97;;;7.90;99.90;;;;;;5032962;28;20413;-67
2023/12/16 10:12:15;;;;;;;7.20;6.50;;;8.00;99.90;;;;;;5032786;28;20539;-67
2023/12/16 10:14:51;;;;;;;7.47;6.00;;;8.00;99.90;;;;;;5032880;28;20174;-67
2023/12/16 10:17:17;;;;;;;7.50;6.03;;;7.80;99.90;;;;;;5032640;28;20603;-67
2023/12/16 10:19:44;;;;;;;7.37;6.53;;;7.80;99.90;;;;;;5032915;28;20772;-68
2023/12/16 10:22:12;;;;;;;7.87;7.07;;;7.60;99.90;;;;;;5032617;28;20461;-67
2023/12/16 10:24:37;;;;;;;7.77;6.97;;;7.80;99.90;;;;;;5032486;28;20417;-67
2023/12/16 10:27:04;;;;;;;7.30;6.60;;;8.00;99.90;;;;;;5032450;28;20417;-67
2023/12/16 10:29:32;;;;;;;6.70;5.70;;;8.00;99.90;;;;;;5032724;28;20170;-67
2023/12/16 10:31:58;;;;;;;8.37;7.57;;;8.20;99.90;;;;;;5032479;28;20531;-67
2023/12/16 10:34:26;;;;;;;6.60;5.90;;;8.10;99.90;;;;;;5032727;28;20504;-67
2023/12/16 10:36:52;;;;;;;11.77;7.30;;;8.10;99.90;;;;;;5032270;28;20170;-67
2023/12/16 10:39:17;;;;;;;7.10;6.40;;;8.00;99.90;;;;;;5032359;28;20770;-67
2023/12/16 10:41:43;;;;;;;10.53;8.00;;;8.00;99.90;;;;;;5031109;28;20217;-67
2023/12/16 10:44:08;;;;;;;7.13;6.43;;;8.10;99.90;;;;;;5032421;28;20170;-66
2023/12/16 10:46:36;;;;;;;7.33;6.63;;;8.30;99.90;;;;;;5032186;28;20193;-67
2023/12/16 10:49:02;;;;;;;8.07;7.27;;;8.50;99.90;;;;;;5032357;28;20166;-68
2023/12/16 10:51:29;;;;;;;13.33;7.07;;;8.50;99.90;;;;;;5032232;28;20851;-67
2023/12/16 10:54:05;;;;;;;7.87;6.80;;;8.60;99.90;;;;;;5032224;28;20934;-67
2023/12/16 10:56:42;;;;;;;8.20;7.40;;;8.60;99.90;;;;;;5032075;28;20419;-67
2023/12/16 10:59:21;;;;;;;8.27;6.70;;;8.80;99.90;;;;;;5032238;28;20806;-67
2023/12/16 11:01:57;;;;;;;7.30;6.60;;;8.90;99.90;;;;;;5031994;28;20460;-67
2023/12/16 11:04:32;;;;;;;7.33;6.63;;;9.00;99.90;;;;;;5032199;28;20416;-67
2023/12/16 11:07:10;;;;;;;7.67;6.50;;;9.10;99.90;;;;;;5031841;28;20420;-67
2023/12/16 11:09:36;;;;;;;9.20;6.63;;;9.10;99.90;;;;;;5032006;28;20424;-67
2023/12/16 11:12:03;;;;;;;7.40;5.93;;;8.80;99.90;;;;;;5031923;28;20556;-67
2023/12/16 11:14:33;;;;;;;7.43;6.77;;;8.80;99.90;;;;;;5031947;28;20918;-67
2023/12/16 11:17:11;;;;;;;10.93;6.97;;;8.80;99.90;;;;;;5031752;28;20566;-67
2023/12/16 11:19:52;;;;;;;7.77;6.90;;;8.70;99.90;;;;;;5031328;28;20504;-66
2023/12/16 11:22:22;;;;;;;11.80;7.57;;;8.90;99.90;;;;;;5030685;28;20617;-66
2023/12/16 11:24:50;;;;;;;8.47;7.50;;;8.90;99.90;;;;;;5031647;28;20417;-67
2023/12/16 11:27:15;;;;;;;9.20;7.17;;;8.80;99.90;;;;;;5031648;28;20412;-66
2023/12/16 11:29:41;;;;;;;9.00;7.40;;;8.90;99.90;;;;;;5031832;28;20940;-67
2023/12/16 11:32:08;;;;;;;8.10;7.30;;;9.20;99.90;;;;;;5031692;28;20186;-66
2023/12/16 11:34:41;;;;;;;6.30;5.80;;;9.50;99.90;;;;;;5031885;28;20250;-67
2023/12/16 11:37:07;;;;;;;10.30;7.00;;;9.80;99.90;;;;;;5031542;28;20789;-67
2023/12/16 11:39:48;;;;;;;8.00;7.20;;;9.90;99.90;;;;;;5031825;28;20421;-67
2023/12/16 11:42:14;;;;;;;10.80;6.70;;;9.90;99.90;;;;;;5031665;28;20741;-67
2023/12/16 11:44:49;;;;;;;9.53;6.23;;;9.90;99.90;;;;;;5031719;28;20423;-66
2023/12/16 11:47:26;;;;;;;8.50;5.53;;;9.80;99.90;;;;;;5030202;28;20427;-67
2023/12/16 11:49:53;;;;;;;8.13;6.57;;;9.80;99.90;;;;;;5031690;28;20409;-67
2023/12/16 11:52:20;;;;;;;7.00;5.90;;;9.80;99.90;;;;;;5031682;28;20455;-67
2023/12/16 11:54:53;;;;;;;7.23;5.90;;;9.70;99.90;;;;;;5031788;28;20416;-66
2023/12/16 11:57:20;;;;;;;9.23;5.20;;;9.50;99.90;;;;;;5031390;28;20413;-67
2023/12/16 11:59:46;;;;;;;8.60;5.80;;;9.50;99.90;;;;;;5031591;28;20461;-67
2023/12/16 12:02:12;;;;;;;7.03;5.83;;;9.60;99.90;;;;;;5031448;28;21002;-67
2023/12/16 12:04:38;;;;;;;9.20;5.27;;;9.80;99.90;;;;;;5031596;28;20413;-66
2023/12/16 12:07:03;;;;;;;7.33;5.50;;;9.70;99.90;;;;;;5031135;28;20159;-67
2023/12/16 12:09:30;;;;;;;6.90;5.10;;;9.70;99.90;;;;;;5031728;28;20933;-67
2023/12/16 12:11:57;;;;;;;7.27;4.93;;;9.70;99.90;;;;;;5047436;22;20691;-65
2023/12/16 12:14:24;;;;;;;8.23;5.50;;;9.70;99.90;;;;;;5031429;28;20457;-64
2023/12/16 12:16:50;;;;;;;9.07;5.00;;;9.50;99.90;;;;;;5031328;28;20425;-65
2023/12/16 12:19:16;;;;;;;8.53;4.73;;;9.40;99.90;;;;;;5031641;28;20770;-64
2023/12/16 12:21:42;;;;;;;6.77;4.80;;;9.30;99.90;;;;;;5031328;28;20460;-64
2023/12/16 12:24:07;;;;;;;6.67;4.47;;;9.30;99.90;;;;;;5031498;28;20175;-64
2023/12/16 12:26:33;;;;;;;11.20;5.50;;;9.20;99.90;;;;;;5031176;28;20419;-64
2023/12/16 12:29:01;;;;;;;10.53;4.63;;;9.10;99.90;;;;;;5031464;28;20193;-64
2023/12/16 12:31:27;;;;;;;8.63;5.77;;;9.20;99.90;;;;;;5034823;28;20523;-64
2023/12/16 12:33:52;;;;;;;7.97;5.80;;;9.30;99.90;;;;;;5034829;28;20460;-64
2023/12/16 12:36:18;;;;;;;9.07;5.40;;;9.40;99.90;;;;;;5034631;28;20178;-64
2023/12/16 12:38:56;;;;;;;9.77;7.00;;;9.50;99.90;;;;;;5034614;28;20719;-64
2023/12/16 12:41:21;;;;;;;7.83;5.33;;;9.30;99.90;;;;;;5034577;28;20260;-64
2023/12/16 12:43:47;;;;;;;6.47;4.57;;;9.30;99.90;;;;;;5034602;28;20421;-64
2023/12/16 12:46:16;;;;;;;7.07;4.90;;;9.40;99.90;;;;;;5034550;28;20235;-64
2023/12/16 12:48:53;;;;;;;8.63;5.27;;;9.30;99.90;;;;;;5034506;28;20420;-65